Time;durP1;ratioP1;P1;durP2;ratioP2;P2;SDS_P1;SDS_P2;PMS_P1;PMS_P2;Temp;Humidity;BMP_temperature;BMP_pressure;BME280_temperature;BME280_humidity;BME280_pressure;Samples;Min_cycle;Max_cycle;Signal;HPM_P1;HPM_P2
2022/02/03 00:05:14;;;;;;;6.75;4.03;;;12.30;58.60;;;;;;6256630;28;20511;-68
2022/02/03 00:25:22;;;;;;;10.55;4.38;;;12.20;58.90;;;;;;6217860;28;20096;-67
2022/02/03 00:28:28;;;;;;;9.63;4.13;;;12.20;58.90;;;;;;6211878;28;20034;-66
2022/02/03 00:38:27;;;;;;;8.88;4.43;;;12.10;59.00;;;;;;6111008;29;20525;-67
2022/02/03 00:48:44;;;;;;;9.52;4.70;;;11.80;59.50;;;;;;6116880;29;20046;-67
2022/02/03 00:51:40;;;;;;;9.13;4.82;;;11.70;59.60;;;;;;6150931;28;20673;-67
2022/02/03 00:54:41;;;;;;;7.68;4.05;;;11.70;59.70;;;;;;6166739;28;20046;-67
2022/02/03 00:57:51;;;;;;;7.53;4.40;;;11.60;59.80;;;;;;6166234;28;20046;-66
2022/02/03 01:00:57;;;;;;;8.68;4.82;;;11.60;59.90;;;;;;6166642;28;20062;-67
2022/02/03 01:04:07;;;;;;;12.00;5.30;;;11.50;60.00;;;;;;6168653;28;20194;-66
2022/02/03 01:07:19;;;;;;;10.45;4.65;;;11.50;60.00;;;;;;6171202;28;20132;-67
2022/02/03 01:10:30;;;;;;;7.43;4.28;;;11.50;60.00;;;;;;6151220;28;20073;-67
2022/02/03 01:34:04;;;;;;;15.38;5.45;;;11.40;60.60;;;;;;6200198;28;20048;-67
2022/02/03 01:37:17;;;;;;;10.52;4.95;;;11.40;60.60;;;;;;6216654;28;20559;-67
2022/02/03 01:43:47;;;;;;;9.18;5.07;;;11.40;60.50;;;;;;6215531;28;20026;-67
2022/02/03 01:47:04;;;;;;;10.90;4.72;;;11.40;60.40;;;;;;6199350;28;20056;-67
2022/02/03 01:53:20;;;;;;;15.00;5.85;;;11.50;60.30;;;;;;6233078;28;20033;-67
2022/02/03 01:56:37;;;;;;;10.52;5.13;;;11.40;60.20;;;;;;6271057;28;20029;-67
2022/02/03 01:59:40;;;;;;;16.17;5.18;;;11.40;60.40;;;;;;6269720;28;20028;-68
2022/02/03 02:03:13;;;;;;;10.77;5.22;;;11.40;60.40;;;;;;6272847;28;20076;-68
2022/02/03 02:06:35;;;;;;;14.50;5.53;;;11.30;60.60;;;;;;6274261;28;20032;-68
2022/02/03 02:10:09;;;;;;;11.07;4.85;;;11.30;60.70;;;;;;6260343;28;20039;-68
2022/02/03 02:13:46;;;;;;;8.98;5.05;;;11.30;60.80;;;;;;6251042;28;20476;-67
2022/02/03 02:17:24;;;;;;;14.68;5.28;;;11.30;60.90;;;;;;6271788;28;20079;-66
2022/02/03 02:43:43;;;;;;;19.25;6.55;;;11.30;61.10;;;;;;6268862;28;20045;-67
2022/02/03 02:46:53;;;;;;;10.93;5.32;;;11.20;60.90;;;;;;6270602;28;20048;-67
2022/02/03 02:50:07;;;;;;;14.55;6.13;;;11.30;60.80;;;;;;6261853;28;20063;-67
2022/02/03 03:33:36;;;;;;;15.75;5.97;;;11.00;61.40;;;;;;6276976;28;20421;-67
2022/02/03 03:36:41;;;;;;;11.68;5.53;;;11.00;61.60;;;;;;6274365;28;20117;-67
2022/02/03 03:39:48;;;;;;;13.43;5.53;;;10.90;61.70;;;;;;6240190;28;20078;-67
2022/02/03 03:43:01;;;;;;;9.38;5.25;;;10.90;61.80;;;;;;6277379;28;20079;-67
2022/02/03 03:46:19;;;;;;;16.77;6.35;;;10.90;62.00;;;;;;6285290;28;20544;-67
2022/02/03 03:49:43;;;;;;;18.48;6.78;;;10.80;62.00;;;;;;6259449;28;20525;-67
2022/02/03 03:52:58;;;;;;;12.65;5.85;;;10.80;62.10;;;;;;6259284;28;20024;-67
2022/02/03 03:56:12;;;;;;;15.07;5.85;;;10.80;62.10;;;;;;6280519;28;20085;-67
2022/02/03 04:41:41;;;;;;;14.70;5.70;;;10.20;63.50;;;;;;6213495;28;20034;-68
2022/02/03 05:21:31;;;;;;;;;;;9.70;64.80;;;;;;6164486;28;20047;-68
2022/02/03 05:25:21;;;;;;;14.20;6.18;;;9.60;64.80;;;;;;6164870;28;19992;-67
2022/02/03 05:44:04;;;;;;;18.10;5.57;;;9.40;65.10;;;;;;6186557;28;20109;-68
2022/02/03 06:16:19;;;;;;;19.58;7.30;;;9.20;65.20;;;;;;6172819;28;20042;-69
2022/02/03 06:28:47;;;;;;;28.80;16.00;;;9.10;65.00;;;;;;6188183;28;20026;-69
2022/02/03 06:31:51;;;;;;;24.90;14.73;;;9.10;65.10;;;;;;6188357;28;20098;-68
2022/02/03 06:34:52;;;;;;;24.73;13.57;;;9.10;65.30;;;;;;6188024;28;20693;-69
2022/02/03 06:37:53;;;;;;;19.73;11.15;;;9.10;65.30;;;;;;6261577;28;20045;-69
2022/02/03 06:40:54;;;;;;;18.15;9.48;;;9.00;65.30;;;;;;6272769;28;20085;-70
2022/02/03 06:43:55;;;;;;;17.65;9.43;;;9.00;65.30;;;;;;6276662;28;20024;-69
2022/02/03 06:47:02;;;;;;;19.77;8.35;;;9.00;65.40;;;;;;6275832;28;20083;-69
2022/02/03 06:50:13;;;;;;;17.45;8.13;;;9.00;65.20;;;;;;6275590;28;20029;-70
2022/02/03 06:53:21;;;;;;;16.42;7.00;;;9.00;65.20;;;;;;6264404;28;20063;-69
2022/02/03 06:56:36;;;;;;;11.45;6.22;;;9.00;65.20;;;;;;6275738;28;20024;-69
2022/02/03 06:59:47;;;;;;;16.30;7.20;;;8.90;65.10;;;;;;6277812;28;20099;-70
2022/02/03 07:02:53;;;;;;;12.50;5.65;;;9.00;65.20;;;;;;6273813;28;20052;-70
2022/02/03 07:05:54;;;;;;;12.43;6.28;;;8.90;65.40;;;;;;6259060;28;20036;-69
2022/02/03 07:08:56;;;;;;;11.73;5.88;;;8.90;65.30;;;;;;6258707;28;20035;-69
2022/02/03 07:11:58;;;;;;;19.90;6.20;;;8.80;65.30;;;;;;6256864;28;20025;-69
2022/02/03 07:15:00;;;;;;;15.50;7.13;;;8.80;65.20;;;;;;6257199;28;20432;-69
2022/02/03 07:18:02;;;;;;;18.98;7.57;;;8.80;65.30;;;;;;6275200;28;20513;-70
2022/02/03 07:21:03;;;;;;;12.13;6.00;;;8.70;65.40;;;;;;6260013;28;20032;-70
2022/02/03 07:24:05;;;;;;;14.20;6.15;;;8.70;65.40;;;;;;6257996;28;20024;-70
2022/02/03 07:27:06;;;;;;;12.68;6.13;;;8.70;65.40;;;;;;6258719;28;20090;-71
2022/02/03 07:30:07;;;;;;;24.20;5.80;;;8.70;65.50;;;;;;6276321;28;20056;-70
2022/02/03 07:33:09;;;;;;;12.95;5.63;;;8.60;65.40;;;;;;6256682;28;20044;-70
2022/02/03 07:36:11;;;;;;;12.27;5.90;;;8.50;65.40;;;;;;6274773;28;20021;-70
2022/02/03 07:39:12;;;;;;;16.40;6.28;;;8.60;65.40;;;;;;6270825;28;20591;-68
2022/02/03 07:42:13;;;;;;;11.25;6.20;;;8.60;65.40;;;;;;6275352;28;20029;-69
2022/02/03 07:45:15;;;;;;;12.68;6.22;;;8.60;65.40;;;;;;6244442;28;20029;-71
2022/02/03 07:48:20;;;;;;;13.63;6.28;;;8.60;65.40;;;;;;6256225;28;20025;-69
2022/02/03 07:51:22;;;;;;;15.02;6.05;;;8.60;65.40;;;;;;6256970;28;20384;-71
2022/02/03 07:54:23;;;;;;;12.38;5.30;;;8.60;65.30;;;;;;6259653;28;20086;-69
2022/02/03 07:57:24;;;;;;;12.02;6.68;;;8.60;65.20;;;;;;6279948;28;20021;-70
2022/02/03 08:00:25;;;;;;;11.27;5.68;;;8.60;65.20;;;;;;6272379;28;20032;-68
2022/02/03 08:03:25;;;;;;;20.70;7.40;;;8.60;65.20;;;;;;6271342;28;20130;-69
2022/02/03 08:06:31;;;;;;;14.90;5.50;;;8.50;65.10;;;;;;6279868;28;20037;-70
2022/02/03 08:09:46;;;;;;;13.32;6.03;;;8.60;65.10;;;;;;6259507;28;20040;-70
2022/02/03 08:12:48;;;;;;;15.50;6.70;;;8.70;65.00;;;;;;6284949;28;20021;-70
2022/02/03 08:15:56;;;;;;;13.40;6.07;;;8.70;64.90;;;;;;6278229;28;20228;-69
2022/02/03 08:19:07;;;;;;;16.38;7.50;;;8.70;64.80;;;;;;6271443;28;20017;-71
2022/02/03 08:22:16;;;;;;;17.33;5.88;;;8.70;64.50;;;;;;6274550;28;20033;-69
2022/02/03 08:25:22;;;;;;;14.45;6.38;;;8.70;64.60;;;;;;6282338;28;20036;-73
2022/02/03 08:31:38;;;;;;;13.85;6.32;;;8.60;64.80;;;;;;6273628;28;20586;-70
2022/02/03 08:43:57;;;;;;;13.55;7.05;;;8.80;64.80;;;;;;6277228;28;20073;-69
2022/02/03 08:46:58;;;;;;;14.43;7.93;;;8.90;64.70;;;;;;6280109;28;20124;-71
2022/02/03 08:49:59;;;;;;;14.52;6.53;;;8.90;64.60;;;;;;6282057;28;20017;-69
2022/02/03 08:53:11;;;;;;;12.35;6.75;;;9.00;65.20;;;;;;6280456;28;20103;-69
2022/02/03 09:00:11;;;;;;;16.02;7.75;;;9.20;64.30;;;;;;6274007;28;20035;-70
2022/02/03 09:59:36;;;;;;;18.27;6.10;;;11.30;59.40;;;;;;6140020;29;20023;-68
2022/02/03 10:02:42;;;;;;;12.38;5.22;;;11.50;59.00;;;;;;6140903;29;20484;-68
2022/02/03 10:06:01;;;;;;;9.38;4.53;;;11.70;58.60;;;;;;6137857;29;20477;-69
2022/02/03 10:09:02;;;;;;;;;;;11.80;58.40;;;;;;6125579;29;20180;-68
2022/02/03 10:12:03;;;;;;;11.75;4.95;;;11.90;58.20;;;;;;6140154;28;19910;-69
2022/02/03 10:15:08;;;;;;;16.75;7.72;;;12.10;57.80;;;;;;6138155;29;20035;-69
2022/02/03 10:18:30;;;;;;;20.60;9.55;;;12.10;57.50;;;;;;6138682;29;20663;-68
2022/02/03 10:21:31;;;;;;;15.27;6.78;;;12.20;57.60;;;;;;6158290;28;20046;-69
2022/02/03 10:24:35;;;;;;;8.98;5.57;;;12.40;57.40;;;;;;6171726;28;20816;-69
2022/02/03 10:27:39;;;;;;;39.92;8.23;;;12.50;56.90;;;;;;6174679;28;20046;-69
2022/02/03 10:31:01;;;;;;;38.55;13.55;;;12.60;56.50;;;;;;6172201;28;20479;-71
2022/02/03 10:34:09;;;;;;;25.63;9.48;;;12.80;56.50;;;;;;6236996;28;20462;-68
2022/02/03 10:37:28;;;;;;;22.02;10.10;;;13.10;56.00;;;;;;6248887;28;20037;-68
2022/02/03 10:47:50;;;;;;;30.98;11.45;;;13.70;54.10;;;;;;6137568;28;20034;-69
2022/02/03 10:54:42;;;;;;;36.72;13.13;;;13.80;54.00;;;;;;6073221;29;20132;-68
2022/02/03 11:08:16;;;;;;;21.52;10.43;;;14.30;53.10;;;;;;6068086;29;20799;-70
2022/02/03 11:10:54;;;;;;;20.95;8.73;;;14.40;52.80;;;;;;6048502;29;20037;-71
2022/02/03 11:13:55;;;;;;;27.02;10.45;;;14.50;52.50;;;;;;6066266;29;20467;-71
2022/02/03 11:16:58;;;;;;;41.70;17.27;;;14.50;52.30;;;;;;6064918;29;20040;-68
2022/02/03 11:20:04;;;;;;;34.40;13.23;;;14.60;52.20;;;;;;6106704;28;20053;-70
2022/02/03 11:26:25;;;;;;;16.23;7.28;;;14.90;51.80;;;;;;6165787;28;20034;-69
2022/02/03 11:33:09;;;;;;;10.10;5.10;;;15.30;51.20;;;;;;6275466;28;20033;-69
2022/02/03 11:59:54;;;;;;;34.35;13.85;;;16.10;48.50;;;;;;6283735;28;20031;-69
2022/02/03 12:06:55;;;;;;;18.80;9.38;;;16.70;47.60;;;;;;6282364;28;20039;-68
2022/02/03 12:19:59;;;;;;;14.27;6.30;;;18.40;44.20;;;;;;6210954;28;20108;-69
2022/02/03 12:23:09;;;;;;;11.82;5.28;;;18.40;43.70;;;;;;6214838;28;20037;-70
2022/02/03 12:26:21;;;;;;;14.82;5.25;;;18.20;44.50;;;;;;6210539;28;20077;-69
2022/02/03 12:29:36;;;;;;;14.43;7.32;;;17.90;45.00;;;;;;6195978;28;20674;-69
2022/02/03 12:39:16;;;;;;;19.27;4.53;;;17.20;45.90;;;;;;6214936;28;20046;-69
2022/02/03 12:45:40;;;;;;;8.48;4.65;;;16.80;46.40;;;;;;6178831;28;20047;-69
2022/02/03 12:48:41;;;;;;;13.52;4.57;;;16.70;46.30;;;;;;6178246;28;20069;-69
2022/02/03 12:51:42;;;;;;;6.55;4.25;;;16.50;46.50;;;;;;6186024;28;20132;-69
2022/02/03 12:54:43;;;;;;;10.65;4.82;;;16.40;46.80;;;;;;6191964;28;20034;-69
2022/02/03 12:57:49;;;;;;;9.90;4.88;;;16.30;47.10;;;;;;6190234;28;20043;-69
2022/02/03 13:00:58;;;;;;;9.52;4.85;;;16.20;47.30;;;;;;6167738;28;20667;-69
2022/02/03 13:04:04;;;;;;;7.75;4.22;;;16.10;47.40;;;;;;6189071;28;20065;-70
2022/02/03 13:07:09;;;;;;;9.32;4.30;;;16.10;47.70;;;;;;6192157;28;20034;-69
2022/02/03 13:10:11;;;;;;;13.02;4.40;;;16.00;47.90;;;;;;6174742;28;20049;-72
2022/02/03 13:13:37;;;;;;;8.35;3.67;;;16.00;47.80;;;;;;6175597;28;20053;-75
2022/02/03 13:17:07;;;;;;;5.90;3.38;;;16.00;47.70;;;;;;6188753;28;20030;-72
2022/02/03 13:20:17;;;;;;;5.22;3.05;;;16.00;47.80;;;;;;6156580;28;20053;-78
2022/02/03 13:23:22;;;;;;;5.80;2.97;;;16.00;47.60;;;;;;6242071;28;20068;-71
2022/02/03 13:26:28;;;;;;;5.93;3.17;;;16.00;47.50;;;;;;6246204;28;20032;-70
2022/02/03 13:29:39;;;;;;;5.90;2.10;;;16.10;47.20;;;;;;6263624;28;20087;-69
2022/02/03 13:32:47;;;;;;;8.63;1.92;;;16.10;46.90;;;;;;6252545;28;20494;-70
2022/02/03 13:42:08;;;;;;;9.50;2.42;;;16.20;46.70;;;;;;6246759;28;20033;-69
2022/02/03 13:45:11;;;;;;;6.53;2.63;;;16.30;46.60;;;;;;6257612;28;20056;-69
2022/02/03 13:48:16;;;;;;;8.52;2.40;;;16.30;46.80;;;;;;6257015;28;20087;-70
2022/02/03 13:51:18;;;;;;;6.57;3.38;;;16.40;46.90;;;;;;6230566;28;20025;-69
2022/02/03 14:15:08;;;;;;;9.13;5.35;;;16.80;46.80;;;;;;6212943;28;20061;-69
2022/02/03 14:21:20;;;;;;;13.70;4.75;;;16.90;46.80;;;;;;6238431;28;20557;-70
2022/02/03 14:27:30;;;;;;;9.50;4.75;;;17.00;46.60;;;;;;6217497;28;20037;-71
2022/02/03 14:30:31;;;;;;;10.02;4.30;;;17.10;46.50;;;;;;6210971;28;20187;-70
2022/02/03 14:33:39;;;;;;;7.85;4.10;;;17.10;46.30;;;;;;6192145;28;20135;-70
2022/02/03 14:36:44;;;;;;;9.00;4.47;;;17.10;46.30;;;;;;6233057;28;20167;-70
2022/02/03 14:40:11;;;;;;;18.05;4.75;;;17.10;46.10;;;;;;6249417;28;20029;-70
2022/02/03 14:43:12;;;;;;;9.68;4.55;;;17.10;46.20;;;;;;6230336;28;20028;-70
2022/02/03 14:46:15;;;;;;;9.52;4.50;;;17.10;46.10;;;;;;6223186;28;20695;-73
2022/02/03 14:49:16;;;;;;;13.30;5.00;;;17.10;46.00;;;;;;6217631;28;20036;-71
2022/02/03 14:58:47;;;;;;;7.75;4.40;;;17.20;46.10;;;;;;6254660;28;20029;-72
2022/02/03 15:01:47;;;;;;;7.60;4.40;;;17.20;45.80;;;;;;6274546;28;20078;-72
2022/02/03 15:04:54;;;;;;;15.48;3.97;;;17.10;45.70;;;;;;6274846;28;20049;-71
2022/02/03 15:08:03;;;;;;;8.57;4.05;;;17.10;45.70;;;;;;6280389;28;20051;-71
2022/02/03 15:11:09;;;;;;;9.88;5.00;;;17.00;45.80;;;;;;6260789;28;20025;-71
2022/02/03 15:14:10;;;;;;;15.07;5.13;;;17.00;46.00;;;;;;6266080;28;20060;-72
2022/02/03 15:17:11;;;;;;;8.75;4.03;;;16.90;46.10;;;;;;6247196;28;20040;-71
2022/02/03 15:20:13;;;;;;;7.60;3.92;;;17.00;46.20;;;;;;6252716;28;20024;-70
2022/02/03 15:23:14;;;;;;;14.73;4.80;;;17.00;46.20;;;;;;6268801;28;20025;-71
2022/02/03 15:26:15;;;;;;;17.00;4.07;;;17.00;46.30;;;;;;6245139;28;20029;-71
2022/02/03 15:29:16;;;;;;;9.02;3.90;;;17.00;46.20;;;;;;6268526;28;20111;-71
2022/02/03 15:32:17;;;;;;;10.30;4.25;;;17.00;46.20;;;;;;6245157;28;20610;-72
2022/02/03 15:35:31;;;;;;;21.55;4.35;;;16.90;46.20;;;;;;6268247;28;20017;-71
2022/02/03 15:38:36;;;;;;;10.75;4.28;;;16.90;46.20;;;;;;6252132;28;20513;-71
2022/02/03 15:41:39;;;;;;;7.95;4.25;;;16.80;46.20;;;;;;6244694;28;20033;-72
2022/02/03 15:44:43;;;;;;;9.63;4.28;;;16.80;46.30;;;;;;6259041;28;20040;-70
2022/02/03 15:47:50;;;;;;;8.52;4.03;;;16.70;46.40;;;;;;6271902;28;20085;-71
2022/02/03 15:58:17;;;;;;;9.63;4.47;;;16.50;46.80;;;;;;6274641;28;20057;-71
2022/02/03 16:17:06;;;;;;;9.07;3.95;;;16.20;47.40;;;;;;6176104;28;20126;-72
2022/02/03 16:20:15;;;;;;;8.57;3.88;;;16.10;47.50;;;;;;6192584;28;20034;-71
2022/02/03 16:53:16;;;;;;;42.72;16.48;;;15.60;48.50;;;;;;6179020;28;20120;-71
2022/02/03 16:56:23;;;;;;;13.68;6.53;;;15.60;48.60;;;;;;6199835;28;20038;-69
2022/02/03 16:59:25;;;;;;;13.18;5.10;;;15.50;48.60;;;;;;6184400;28;20351;-70
2022/02/03 17:02:26;;;;;;;9.43;4.03;;;15.50;48.70;;;;;;6198138;28;20053;-70
2022/02/03 17:05:28;;;;;;;13.65;6.10;;;15.40;48.80;;;;;;6183275;28;20026;-69
2022/02/03 17:08:29;;;;;;;27.38;10.43;;;15.40;48.90;;;;;;6216546;28;20512;-68
2022/02/03 17:11:32;;;;;;;17.27;6.72;;;15.30;49.00;;;;;;6278206;28;20153;-69
2022/02/03 17:14:32;;;;;;;14.73;4.82;;;15.30;49.20;;;;;;6266468;28;20120;-70
2022/02/03 17:17:33;;;;;;;14.07;5.07;;;15.20;49.30;;;;;;6273553;28;20029;-70
2022/02/03 17:20:38;;;;;;;9.20;4.78;;;15.20;49.50;;;;;;6276612;28;20028;-70
2022/02/03 17:23:38;;;;;;;13.60;4.47;;;15.10;49.50;;;;;;6275991;28;20084;-69
2022/02/03 17:26:54;;;;;;;15.10;6.95;;;15.10;50.20;;;;;;6265430;28;20074;-69
2022/02/03 17:30:08;;;;;;;19.25;4.97;;;15.10;49.80;;;;;;6278481;28;20027;-68
2022/02/03 18:09:37;;;;;;;12.25;5.45;;;14.70;51.00;;;;;;6279702;28;20086;-70
2022/02/03 18:29:48;;;;;;;19.70;7.07;;;14.60;51.50;;;;;;6273500;28;20055;-70
2022/02/03 18:35:33;;;;;;;16.90;6.40;;;14.60;51.50;;;;;;6271933;28;20553;-71
2022/02/03 18:55:09;;;;;;;13.52;5.22;;;14.40;51.80;;;;;;6275117;28;20036;-69
2022/02/03 20:07:19;;;;;;;18.02;7.03;;;13.50;53.90;;;;;;6277371;28;20040;-69
2022/02/03 20:10:26;;;;;;;20.25;7.53;;;13.50;53.90;;;;;;6279838;28;20044;-69
2022/02/03 20:13:27;;;;;;;12.80;6.13;;;13.60;53.90;;;;;;6276573;28;20021;-69
2022/02/03 20:16:28;;;;;;;28.83;8.68;;;13.60;53.80;;;;;;6255506;28;20612;-70
2022/02/03 20:19:30;;;;;;;17.25;7.18;;;13.60;53.80;;;;;;6274702;28;20029;-70
2022/02/03 20:22:36;;;;;;;21.42;8.45;;;13.50;53.80;;;;;;6280755;28;20091;-70
2022/02/03 20:25:40;;;;;;;19.08;8.15;;;13.50;53.90;;;;;;6277994;28;20064;-71
2022/02/03 20:28:41;;;;;;;19.60;9.18;;;13.40;53.80;;;;;;6273831;28;20037;-70
2022/02/03 20:31:42;;;;;;;19.42;7.75;;;13.40;53.90;;;;;;6247687;28;20025;-69
2022/02/03 20:34:44;;;;;;;17.92;7.40;;;13.40;53.90;;;;;;6247738;28;20075;-69
2022/02/03 20:37:45;;;;;;;12.30;5.90;;;13.40;54.00;;;;;;6272088;28;20020;-68
2022/02/03 20:40:48;;;;;;;13.50;6.57;;;13.30;54.00;;;;;;6273303;28;20031;-71
2022/02/03 20:43:50;;;;;;;14.25;6.88;;;13.30;54.20;;;;;;6258703;28;20033;-70
2022/02/03 20:46:51;;;;;;;19.65;6.28;;;13.20;54.30;;;;;;6256817;28;20445;-70
2022/02/03 20:49:52;;;;;;;14.18;6.72;;;13.20;54.40;;;;;;6277674;28;20025;-70
2022/02/03 20:52:53;;;;;;;18.95;6.55;;;13.20;54.40;;;;;;6243846;28;20025;-70
2022/02/03 20:55:54;;;;;;;16.48;6.03;;;13.20;54.50;;;;;;6255903;28;20027;-70
2022/02/03 20:58:56;;;;;;;13.40;5.78;;;13.20;54.50;;;;;;6273029;28;20036;-68
2022/02/03 21:02:01;;;;;;;18.25;6.93;;;13.20;54.60;;;;;;6259249;28;20511;-68
2022/02/03 21:05:08;;;;;;;34.20;6.95;;;13.20;54.70;;;;;;6257950;28;20049;-69
2022/02/03 21:08:10;;;;;;;17.48;6.97;;;13.20;54.80;;;;;;6240492;28;20111;-69
2022/02/03 21:11:12;;;;;;;14.35;6.28;;;13.20;54.80;;;;;;6240488;28;20064;-69
2022/02/03 21:14:13;;;;;;;17.65;6.63;;;13.10;54.80;;;;;;6259308;28;20567;-69
2022/02/03 21:17:14;;;;;;;27.08;9.35;;;13.20;54.80;;;;;;6258646;28;20027;-70
2022/02/03 21:20:18;;;;;;;20.30;7.55;;;13.20;54.90;;;;;;6242530;28;20020;-69
2022/02/03 21:23:19;;;;;;;16.40;7.43;;;13.20;55.00;;;;;;6239760;28;20469;-69
2022/02/03 21:26:31;;;;;;;18.88;8.10;;;13.20;55.10;;;;;;6258860;28;20430;-69
2022/02/03 21:29:33;;;;;;;21.95;8.82;;;13.10;55.20;;;;;;6225031;28;20040;-68
2022/02/03 21:32:34;;;;;;;17.92;7.85;;;13.00;55.20;;;;;;6263551;28;20017;-68
2022/02/03 21:35:35;;;;;;;15.55;6.35;;;13.00;55.40;;;;;;6276770;28;20017;-69
2022/02/03 21:38:39;;;;;;;16.67;6.97;;;12.90;55.60;;;;;;6260262;28;20025;-69
2022/02/03 21:41:40;;;;;;;21.33;7.32;;;12.70;55.70;;;;;;6259323;28;20021;-68
2022/02/03 21:44:41;;;;;;;11.90;6.20;;;12.70;55.90;;;;;;6256380;28;20603;-71
2022/02/03 21:47:43;;;;;;;15.27;7.35;;;12.60;56.00;;;;;;6277785;28;20032;-71
2022/02/03 21:50:44;;;;;;;16.42;7.07;;;12.60;56.10;;;;;;6280100;28;20028;-70
2022/02/03 21:53:45;;;;;;;13.32;5.88;;;12.60;56.10;;;;;;6253312;28;20078;-70
2022/02/03 21:56:48;;;;;;;15.45;5.88;;;12.60;56.20;;;;;;6276030;28;20606;-69
2022/02/03 21:59:50;;;;;;;26.73;6.90;;;12.60;56.20;;;;;;6235991;28;20032;-70
2022/02/03 22:02:51;;;;;;;16.73;6.88;;;12.60;56.30;;;;;;6229293;28;20382;-69
2022/02/03 22:05:54;;;;;;;19.40;7.15;;;12.60;56.40;;;;;;6247612;28;20374;-70
2022/02/03 22:08:54;;;;;;;23.35;7.90;;;12.50;56.40;;;;;;6216882;28;20470;-69
2022/02/03 22:11:55;;;;;;;25.02;7.07;;;12.50;56.40;;;;;;6224695;28;20055;-69
2022/02/03 22:14:56;;;;;;;16.45;7.40;;;12.50;56.40;;;;;;6227260;28;20067;-68
2022/02/03 22:17:57;;;;;;;14.68;5.95;;;12.60;56.50;;;;;;6226514;28;20069;-69
2022/02/03 22:21:05;;;;;;;15.15;6.18;;;12.30;56.60;;;;;;6235089;28;20028;-68
2022/02/03 22:49:33;;;;;;;23.02;7.95;;;12.10;57.10;;;;;;6260450;28;20124;-68
2022/02/03 22:52:36;;;;;;;21.73;8.60;;;12.10;57.30;;;;;;6258703;28;20510;-70
2022/02/03 22:55:38;;;;;;;21.67;9.20;;;12.00;57.50;;;;;;6256330;28;20120;-70
2022/02/03 23:01:46;;;;;;;15.25;6.75;;;11.90;57.60;;;;;;6260367;28;20493;-69
2022/02/03 23:04:48;;;;;;;15.90;7.53;;;11.90;57.70;;;;;;6254196;28;20056;-70
2022/02/03 23:15:03;;;;;;;17.58;6.90;;;11.90;57.50;;;;;;6209370;28;20689;-69
2022/02/03 23:17:43;;;;;;;12.10;6.72;;;11.90;57.50;;;;;;6224034;28;20619;-69
2022/02/03 23:21:01;;;;;;;12.50;6.18;;;11.80;57.60;;;;;;6228306;28;20025;-69
2022/02/03 23:24:01;;;;;;;17.95;7.53;;;11.80;57.80;;;;;;6218096;28;20053;-68
2022/02/03 23:30:42;;;;;;;18.65;7.05;;;11.70;58.10;;;;;;6142412;28;20126;-67
2022/02/03 23:33:43;;;;;;;15.82;6.95;;;11.70;58.30;;;;;;6128341;28;20022;-67
2022/02/03 23:36:44;;;;;;;26.95;8.15;;;11.70;58.30;;;;;;6141584;28;20041;-67
2022/02/03 23:39:58;;;;;;;24.52;7.20;;;11.70;58.40;;;;;;6112069;28;20128;-67
